^^

..:: Storico WU ::..




Lo storico viene creato da WUnderground con i dati che la stazione Meteomincio invia al loro server. L' aggiornamento viene fatto ogni 5 minuti circa, tuttavia possono esserci intervalli pi¨ ampi a causa di errori, interruzioni di servizio o problemi nell' invio tramite FTP.


Storico stazione MeteoMincio
Giorno Sommario per Settembre 22, 2022 Unità:  Inglese    Metrico   Entrambi
Giorno Settimana Mese Anno
  Max: Min: Media:
Temperatura: 69.1 °F 53.4 °F 60.1 °F
Dew Point: 51.3 °F 46 °F 49.5 °F
Umidità: 82% 47.6% 69%
Velocità vento: 5.2mph 0mph 2mph
Raffica: 9.2mph - -
Direzione- - East
Pressione: 30.2 in 30.1 in -
Precipitazioni: 0 in    
 
 
Tabulato Dati per Settembre 22, 2022
Ora Temperatura Dew Point Pressione Direzione Velocità vento Raffica Umidità Intensità pioggia (oraria) Info solare Situazione
00:04 53.8 °F 46.2 °F 30.2 in NNE 1.9 mph 3.5 mph 75% 0 in 0 W/m2
00:09 53.8 °F 46 °F 30.2 in NNE 2.2 mph 3.5 mph 74.7% 0 in 0 W/m2
00:14 53.6 °F 46 °F 30.2 in NE 1.4 mph 3.5 mph 75% 0 in 0 W/m2
00:19 53.6 °F 46 °F 30.2 in NE 1.3 mph 3.5 mph 75% 0 in 0 W/m2
00:24 53.4 °F 46 °F 30.2 in NE 1.4 mph 3 mph 75.6% 0 in 0 W/m2
17:19 69.1 °F 48.6 °F 30.1 in East 2.9 mph 6 mph 47.9% 0 in 311 W/m2
17:24 69.1 °F 48.6 °F 30.1 in ESE 3.8 mph 7 mph 48% 0 in 295 W/m2
17:29 68.9 °F 48.2 °F 30.1 in ESE 2.5 mph 7 mph 47.8% 0 in 278 W/m2
17:34 68.7 °F 48.6 °F 30.1 in ESE 3.5 mph 5 mph 48.5% 0 in 255 W/m2
17:39 68.5 °F 48 °F 30.1 in ESE 2.2 mph 5 mph 47.8% 0 in 244 W/m2
17:44 68.5 °F 47.8 °F 30.1 in East 1.5 mph 3.5 mph 47.7% 0 in 232 W/m2
17:49 68.5 °F 48 °F 30.1 in East 1.4 mph 3 mph 47.8% 0 in 218 W/m2
17:54 68.5 °F 48 °F 30.1 in ENE 1.9 mph 4 mph 47.7% 0 in 206 W/m2
17:59 68.4 °F 47.7 °F 30.1 in ENE 2.7 mph 5 mph 47.6% 0 in 186 W/m2
18:04 68.4 °F 48.4 °F 30.1 in ENE 2.5 mph 5 mph 48.9% 0 in 171 W/m2
18:09 68.2 °F 49.1 °F 30.1 in ENE 2.4 mph 4 mph 50.4% 0 in 151 W/m2
18:14 68 °F 49.3 °F 30.1 in ENE 2.4 mph 4 mph 51.2% 0 in 134 W/m2
18:19 67.8 °F 49.5 °F 30.1 in ENE 1.3 mph 3.5 mph 51.9% 0 in 118 W/m2
18:24 67.5 °F 49.8 °F 30.1 in ENE 0.6 mph 3 mph 53.3% 0 in 102 W/m2
18:29 66.9 °F 50.4 °F 30.1 in East 0.7 mph 2.3 mph 55.1% 0 in 33 W/m2
18:34 66.7 °F 50.4 °F 30.1 in East 0.8 mph 3 mph 55.9% 0 in 33 W/m2
18:39 66.2 °F 50.4 °F 30.1 in East 1.6 mph 3.5 mph 56.6% 0 in 49 W/m2
18:44 66 °F 49.8 °F 30.1 in East 1.5 mph 3.5 mph 55.8% 0 in 47 W/m2
18:49 65.7 °F 49.5 °F 30.1 in East 1.9 mph 3.5 mph 55.9% 0 in 37 W/m2
18:54 65.3 °F 49.3 °F 30.1 in East 1.5 mph 3 mph 56.2% 0 in 28 W/m2
18:59 64.9 °F 49.6 °F 30.1 in East 1.3 mph 3.5 mph 57.6% 0 in 14 W/m2
19:04 64.4 °F 50.2 °F 30.1 in East 1.1 mph 3 mph 59.9% 0 in 12 W/m2
19:09 63.7 °F 50.2 °F 30.1 in East 1.3 mph 2.3 mph 61.5% 0 in 9 W/m2
19:14 63.1 °F 50.9 °F 30.1 in East 1.1 mph 2.3 mph 64.4% 0 in 5 W/m2
19:19 62.2 °F 51.3 °F 30.1 in East 1.2 mph 2.3 mph 66.9% 0 in 0 W/m2
19:24 61.9 °F 51.1 °F 30.1 in East 1.1 mph 2.3 mph 67.7% 0 in 0 W/m2
19:29 61.5 °F 50.5 °F 30.1 in East 0.9 mph 2.3 mph 67.2% 0 in 0 W/m2
19:34 61 °F 50.7 °F 30.1 in East 1.1 mph 2.3 mph 69% 0 in 0 W/m2
19:39 60.6 °F 50.7 °F 30.1 in East 0.7 mph 2 mph 69.4% 0 in 0 W/m2
19:44 60.4 °F 50.7 °F 30.1 in East 0.1 mph 1.2 mph 69.8% 0 in 0 W/m2
19:49 60.3 °F 50.9 °F 30.1 in Calm   1 mph 71% 0 in 0 W/m2
19:54 59.9 °F 50.9 °F 30.1 in East 0.2 mph 1.2 mph 72.1% 0 in 0 W/m2
19:59 59.7 °F 50.7 °F 30.1 in East 0.4 mph 1.2 mph 72.4% 0 in 0 W/m2
20:04 59.5 °F 50.9 °F 30.1 in Calm   1 mph 73% 0 in 0 W/m2
20:09 59.4 °F 50.7 °F 30.1 in Calm     73.2% 0 in 0 W/m2
20:14 59 °F 50.7 °F 30.1 in Calm     73.8% 0 in 0 W/m2
20:19 58.6 °F 50.7 °F 30.1 in Calm     74.6% 0 in 0 W/m2
20:24 58.5 °F 50.4 °F 30.1 in East 0.3 mph 1.2 mph 74.6% 0 in 0 W/m2
20:29 58.3 °F 50 °F 30.1 in Calm   1 mph 74% 0 in 0 W/m2
20:34 58.1 °F 50 °F 30.1 in East 0.4 mph 2.3 mph 74.4% 0 in 0 W/m2
20:39 57.7 °F 49.8 °F 30.1 in East 1.2 mph 2.3 mph 75.1% 0 in 0 W/m2
20:44 57.6 °F 49.6 °F 30.1 in East 0.8 mph 2.3 mph 74.8% 0 in 0 W/m2
20:49 57.6 °F 49.5 °F 30.1 in East 0.8 mph 2.3 mph 74.3% 0 in 0 W/m2
20:54 57.4 °F 49.3 °F 30.1 in East 1.2 mph 2.3 mph 74.3% 0 in 0 W/m2
20:59 57 °F 49.3 °F 30.1 in ENE 2.9 mph 9 mph 75.1% 0 in 0 W/m2
21:04 57.4 °F 48.4 °F 30.1 in ENE 4.6 mph 9.2 mph 72.1% 0 in 0 W/m2
21:09 57.9 °F 48.4 °F 30.1 in East 5.2 mph 9 mph 70.8% 0 in 0 W/m2
21:14 58.5 °F 48.7 °F 30.1 in East 4 mph 8.1 mph 70% 0 in 0 W/m2
21:19 58.5 °F 48.7 °F 30.1 in ESE 2.6 mph 8 mph 70.4% 0 in 0 W/m2
21:24 58.3 °F 48.9 °F 30.1 in ESE 3.1 mph 7 mph 71.4% 0 in 0 W/m2
21:29 58.1 °F 49.5 °F 30.1 in East 3.4 mph 7 mph 72.8% 0 in 0 W/m2
21:34 57.9 °F 49.6 °F 30.1 in East 2.8 mph 7 mph 73.6% 0 in 0 W/m2
21:39 57.9 °F 49.8 °F 30.1 in ESE 4.1 mph 7 mph 74.1% 0 in 0 W/m2
21:44 57.9 °F 50 °F 30.1 in ESE 3.6 mph 7 mph 75% 0 in 0 W/m2
21:49 57.7 °F 49.8 °F 30.1 in East 3.1 mph 7 mph 75% 0 in 0 W/m2
21:54 57.6 °F 50.2 °F 30.1 in East 2.7 mph 6 mph 76% 0 in 0 W/m2
21:59 57.4 °F 50.2 °F 30.1 in ESE 3.3 mph 6 mph 76.6% 0 in 0 W/m2
22:04 57.4 °F 50.2 °F 30.1 in ESE 2.4 mph 6 mph 77% 0 in 0 W/m2
22:09 57.4 °F 50.2 °F 30.1 in ESE 2.1 mph 4 mph 77% 0 in 0 W/m2
22:14 57.4 °F 50.2 °F 30.1 in East 2.7 mph 6 mph 77% 0 in 0 W/m2
22:19 57.4 °F 50.2 °F 30.1 in ESE 1.9 mph 6 mph 77% 0 in 0 W/m2
22:24 57.4 °F 50.2 °F 30.1 in ESE 1.9 mph 5 mph 77% 0 in 0 W/m2
22:29 57.4 °F 50.2 °F 30.1 in ESE 2.3 mph 5 mph 76.9% 0 in 0 W/m2
22:34 57.2 °F 50 °F 30.1 in ESE 1.2 mph 5 mph 77% 0 in 0 W/m2
22:39 57 °F 50 °F 30.2 in ENE 1.9 mph 3.5 mph 77% 0 in 0 W/m2
22:44 57 °F 50 °F 30.2 in NE 2.7 mph 5 mph 77.2% 0 in 0 W/m2
22:49 56.7 °F 49.8 °F 30.2 in NE 3.5 mph 5 mph 78% 0 in 0 W/m2
22:54 56.7 °F 49.8 °F 30.2 in NNE 3.7 mph 6 mph 78% 0 in 0 W/m2
22:59 56.5 °F 49.8 °F 30.2 in NE 3.3 mph 6 mph 78.5% 0 in 0 W/m2
23:04 55.9 °F 49.6 °F 30.2 in ENE 2 mph 6 mph 79.3% 0 in 0 W/m2
23:09 55.6 °F 49.5 °F 30.2 in ENE 2.1 mph 4 mph 80% 0 in 0 W/m2
23:14 55.4 °F 49.5 °F 30.2 in NE 2.9 mph 5 mph 80.3% 0 in 0 W/m2
23:19 55.2 °F 49.6 °F 30.2 in NE 2.9 mph 5 mph 81% 0 in 0 W/m2
23:24 55 °F 49.5 °F 30.2 in ENE 2.6 mph 5 mph 81.1% 0 in 0 W/m2
23:29 55 °F 49.5 °F 30.2 in NE 3.1 mph 5 mph 81.2% 0 in 0 W/m2
23:34 55 °F 49.5 °F 30.2 in NE 3 mph 5 mph 81% 0 in 0 W/m2
23:39 55 °F 49.5 °F 30.2 in ENE 2.5 mph 5 mph 81.8% 0 in 0 W/m2
23:44 54.9 °F 49.5 °F 30.2 in NE 3.2 mph 5 mph 82% 0 in 0 W/m2
23:49 54.7 °F 49.3 °F 30.2 in NE 2.4 mph 5 mph 82% 0 in 0 W/m2
23:54 54.7 °F 49.3 °F 30.2 in ENE 1.7 mph 4 mph 82% 0 in 0 W/m2
23:59 54.5 °F 49.1 °F 30.2 in NE 3.3 mph 5 mph 82% 0 in 0 W/m2
Stazione Meteorologica MeteoMincio Rivalta s/M (MN)
Con i complimenti di Weather Underground - 4 mb


METEO PILLOLE
Il più grosso chicco di grandine
Gopalganj - Bangladesh
E' quello del peso di 1,02 kg, caduto durante la tempesta del 14 aprile 1986 che causò 92 morti.

Do NOT follow this link or you will be banned from the site!